Time;durP1;ratioP1;P1;durP2;ratioP2;P2;SDS_P1;SDS_P2;PMS_P1;PMS_P2;Temp;Humidity;BMP_temperature;BMP_pressure;BME280_temperature;BME280_humidity;BME280_pressure;Samples;Min_cycle;Max_cycle;Signal;HPM_P1;HPM_P2
2022/10/31 00:00:47;;;;;;;;;;;19.10;99.90;;;;;;5029225;28;19936;-67
2022/10/31 00:03:15;;;;;;;;;;;19.10;99.90;;;;;;5039110;28;19921;-67
2022/10/31 00:05:46;;;;;;;;;;;19.10;99.90;;;;;;5030421;28;19925;-67
2022/10/31 00:08:14;;;;;;;;;;;19.10;99.90;;;;;;5028684;28;20424;-65
2022/10/31 00:10:41;;;;;;;;;;;19.10;99.90;;;;;;5025937;28;19925;-66
2022/10/31 00:13:09;;;;;;;;;;;19.10;99.90;;;;;;5038763;28;19925;-64
2022/10/31 00:15:37;;;;;;;;;;;19.10;99.90;;;;;;5039847;28;20593;-66
2022/10/31 00:18:04;;;;;;;;;;;19.10;99.90;;;;;;5031658;28;19932;-69
2022/10/31 00:20:31;;;;;;;;;;;19.10;99.90;;;;;;5032480;28;19936;-67
2022/10/31 00:23:02;;;;;;;;;;;19.10;99.90;;;;;;5030712;28;19925;-66
2022/10/31 00:25:32;;;;;;;;;;;19.10;99.90;;;;;;5030459;28;19921;-65
2022/10/31 00:27:59;;;;;;;;;;;19.10;99.90;;;;;;5030812;28;19921;-66
2022/10/31 00:30:27;;;;;;;;;;;19.10;99.90;;;;;;5011859;28;20304;-66
2022/10/31 00:32:54;;;;;;;;;;;19.10;99.90;;;;;;5031689;28;19925;-67
2022/10/31 00:35:22;;;;;;;;;;;19.10;99.90;;;;;;5028867;28;19937;-65
2022/10/31 00:37:49;;;;;;;;;;;19.10;99.90;;;;;;5010586;28;19932;-65
2022/10/31 00:40:16;;;;;;;;;;;19.10;99.90;;;;;;5029824;28;19932;-67
2022/10/31 00:42:43;;;;;;;;;;;19.10;99.90;;;;;;5005092;28;20310;-66
2022/10/31 00:45:10;;;;;;;;;;;19.10;99.90;;;;;;5032636;28;19936;-66
2022/10/31 00:47:37;;;;;;;;;;;19.10;99.90;;;;;;5030839;28;19932;-68
2022/10/31 00:50:05;;;;;;;;;;;19.10;99.90;;;;;;5033576;28;20030;-66
2022/10/31 00:52:32;;;;;;;;;;;19.10;99.90;;;;;;5029368;28;19929;-65
2022/10/31 00:54:59;;;;;;;;;;;19.10;99.90;;;;;;5015016;28;19925;-66
2022/10/31 00:57:26;;;;;;;;;;;19.00;99.90;;;;;;5032058;28;19928;-69
2022/10/31 00:59:53;;;;;;;;;;;19.10;99.90;;;;;;5001243;28;19925;-66
2022/10/31 01:02:20;;;;;;;;;;;19.10;99.90;;;;;;5010642;28;19921;-67
2022/10/31 01:04:48;;;;;;;;;;;19.00;99.90;;;;;;5013932;28;19929;-67
2022/10/31 01:07:15;;;;;;;;;;;19.00;99.90;;;;;;5029842;28;19932;-67
2022/10/31 01:09:44;;;;;;;;;;;19.10;99.90;;;;;;5032028;28;19925;-66
2022/10/31 01:12:11;;;;;;;;;;;19.00;99.90;;;;;;5015179;28;19921;-66
2022/10/31 01:14:42;;;;;;;;;;;19.00;99.90;;;;;;5008027;28;19928;-66
2022/10/31 01:17:09;;;;;;;;;;;19.00;99.90;;;;;;5012897;28;19936;-67
2022/10/31 01:19:36;;;;;;;;;;;19.00;99.90;;;;;;5029796;28;19929;-66
2022/10/31 01:22:03;;;;;;;;;;;19.00;99.90;;;;;;5029078;28;19925;-66
2022/10/31 01:24:32;;;;;;;;;;;19.00;99.90;;;;;;5030501;28;19925;-66
2022/10/31 01:27:01;;;;;;;;;;;19.00;99.90;;;;;;5012074;28;20381;-66
2022/10/31 01:29:33;;;;;;;;;;;19.00;99.90;;;;;;5023343;28;19952;-66
2022/10/31 01:32:00;;;;;;;;;;;19.00;99.90;;;;;;5030265;28;19921;-66
2022/10/31 01:34:27;;;;;;;;;;;19.00;99.90;;;;;;5011511;28;19932;-66
2022/10/31 01:36:54;;;;;;;;;;;19.00;99.90;;;;;;5011756;28;19940;-66
2022/10/31 01:39:22;;;;;;;;;;;19.00;99.90;;;;;;5029039;28;20004;-65
2022/10/31 01:41:50;;;;;;;;;;;19.00;99.90;;;;;;5028322;28;19928;-66
2022/10/31 01:44:17;;;;;;;;;;;19.00;99.90;;;;;;5011641;28;19921;-67
2022/10/31 01:46:51;;;;;;;;;;;19.00;99.90;;;;;;5008078;28;20384;-66
2022/10/31 01:49:36;;;;;;;;;;;19.00;99.90;;;;;;5026221;28;19925;-66
2022/10/31 01:52:06;;;;;;;;;;;19.00;99.90;;;;;;5028092;28;19936;-66
2022/10/31 01:54:35;;;;;;;;;;;19.00;99.90;;;;;;5022107;28;19951;-66
2022/10/31 01:57:05;;;;;;;;;;;19.00;99.90;;;;;;5028777;28;19928;-66
2022/10/31 01:59:34;;;;;;;;;;;19.00;99.90;;;;;;5029592;28;19932;-66
2022/10/31 02:02:01;;;;;;;;;;;19.00;99.90;;;;;;5027149;28;20284;-66
2022/10/31 02:04:29;;;;;;;;;;;19.00;99.90;;;;;;5029684;28;19925;-67
2022/10/31 02:06:59;;;;;;;;;;;19.00;99.90;;;;;;5010465;28;19925;-66
2022/10/31 02:09:26;;;;;;;;;;;19.00;99.90;;;;;;5036637;28;19921;-64
2022/10/31 02:11:56;;;;;;;;;;;19.00;99.90;;;;;;5030106;28;19929;-66
2022/10/31 02:14:25;;;;;;;;;;;19.00;99.90;;;;;;5011211;28;19924;-66
2022/10/31 02:16:53;;;;;;;;;;;19.00;99.90;;;;;;5029954;28;20312;-65
2022/10/31 02:19:28;;;;;;;;;;;19.00;99.90;;;;;;5030027;28;19928;-64
2022/10/31 02:22:18;;;;;;;;;;;19.00;99.90;;;;;;5023861;28;20377;-66
2022/10/31 02:25:08;;;;;;;;;;;19.00;99.90;;;;;;5010079;28;20396;-66
2022/10/31 02:27:54;;;;;;;;;;;19.00;99.90;;;;;;4995569;28;19921;-65
2022/10/31 02:30:23;;;;;;;;;;;18.90;99.90;;;;;;5038506;28;20368;-66
2022/10/31 02:33:09;;;;;;;;;;;19.00;99.90;;;;;;5012816;28;19936;-66
2022/10/31 02:35:52;;;;;;;;;;;19.00;99.90;;;;;;5007222;28;19925;-66
2022/10/31 02:38:26;;;;;;;;;;;19.00;99.90;;;;;;5005814;28;20409;-65
2022/10/31 02:40:56;;;;;;;;;;;19.00;99.90;;;;;;5025833;28;19936;-66
2022/10/31 02:43:37;;;;;;;;;;;18.90;99.90;;;;;;5008199;28;19925;-65
2022/10/31 02:46:13;;;;;;;;;;;19.00;99.90;;;;;;5028111;28;19929;-66
2022/10/31 02:48:41;;;;;;;;;;;19.00;99.90;;;;;;5010234;28;20411;-66
2022/10/31 02:51:09;;;;;;;;;;;18.90;99.90;;;;;;5031380;28;19932;-66
2022/10/31 02:53:37;;;;;;;;;;;18.90;99.90;;;;;;5007108;28;19925;-66
2022/10/31 02:56:08;;;;;;;;;;;18.90;99.90;;;;;;5010294;28;20304;-66
2022/10/31 02:58:37;;;;;;;;;;;18.90;99.90;;;;;;5007858;28;19944;-66
2022/10/31 03:01:20;;;;;;;;;;;18.90;99.90;;;;;;5008480;28;19922;-66
2022/10/31 03:03:59;;;;;;;;;;;18.90;99.90;;;;;;5026017;28;19921;-65
2022/10/31 03:06:32;;;;;;;;;;;18.90;99.90;;;;;;5011187;28;20415;-65
2022/10/31 03:09:18;;;;;;;;;;;18.90;99.90;;;;;;5027100;28;19921;-66
2022/10/31 03:11:51;;;;;;;;;;;18.90;99.90;;;;;;5022133;28;20432;-66
2022/10/31 03:14:26;;;;;;;;;;;18.90;99.90;;;;;;5027235;28;20112;-66
2022/10/31 03:16:59;;;;;;;;;;;18.90;99.90;;;;;;5004824;28;19929;-66
2022/10/31 03:19:30;;;;;;;;;;;18.90;99.90;;;;;;5027720;28;19929;-66
2022/10/31 03:21:59;;;;;;;;;;;18.90;99.90;;;;;;5032290;28;19925;-65
2022/10/31 03:24:35;;;;;;;;;;;18.90;99.90;;;;;;5026305;28;20365;-66
2022/10/31 03:27:03;;;;;;;;;;;18.90;99.90;;;;;;5013912;28;19925;-66
2022/10/31 03:29:33;;;;;;;;;;;18.80;99.90;;;;;;5027854;28;19925;-66
2022/10/31 03:32:02;;;;;;;;;;;18.90;99.90;;;;;;5015601;28;19921;-66
2022/10/31 03:34:30;;;;;;;;;;;18.90;99.90;;;;;;5010198;28;19921;-65
2022/10/31 03:37:00;;;;;;;;;;;18.90;99.90;;;;;;5027841;28;19932;-66
2022/10/31 03:39:28;;;;;;;;;;;18.80;99.90;;;;;;5012144;28;20415;-66
2022/10/31 03:42:04;;;;;;;;;;;18.90;99.90;;;;;;5015667;28;19921;-65
2022/10/31 03:44:32;;;;;;;;;;;18.90;99.90;;;;;;5003372;28;20300;-66
2022/10/31 03:47:02;;;;;;;;;;;18.80;99.90;;;;;;5006123;28;19921;-66
2022/10/31 03:49:30;;;;;;;;;;;18.90;99.90;;;;;;5009786;28;20424;-66
2022/10/31 03:52:01;;;;;;;;;;;18.80;99.90;;;;;;5025395;28;20315;-67
2022/10/31 03:54:33;;;;;;;;;;;18.80;99.90;;;;;;5027541;28;20283;-65
2022/10/31 03:57:06;;;;;;;;;;;18.80;99.90;;;;;;5027535;28;19925;-66
2022/10/31 03:59:40;;;;;;;;;;;18.80;99.90;;;;;;5013881;28;20212;-64
2022/10/31 04:02:10;;;;;;;;;;;18.80;99.90;;;;;;5031458;28;19932;-65
2022/10/31 04:04:38;;;;;;;;;;;18.80;99.90;;;;;;5007645;28;19921;-67
2022/10/31 04:07:06;;;;;;;;;;;18.80;99.90;;;;;;5027374;28;20345;-66
2022/10/31 04:09:36;;;;;;;;;;;18.80;99.90;;;;;;5011737;28;19924;-66
2022/10/31 04:12:06;;;;;;;;;;;18.80;99.90;;;;;;5027292;28;20309;-66
2022/10/31 04:14:55;;;;;;;;;;;18.80;99.90;;;;;;5009504;28;20400;-65
2022/10/31 04:17:24;;;;;;;;;;;18.80;99.90;;;;;;5008388;28;19925;-66
2022/10/31 04:19:51;;;;;;;;;;;18.80;99.90;;;;;;5010678;28;20408;-65
2022/10/31 04:22:19;;;;;;;;;;;18.80;99.90;;;;;;5009171;28;19928;-65
2022/10/31 04:24:46;;;;;;;;;;;18.80;99.90;;;;;;5027695;28;19925;-66
2022/10/31 04:27:15;;;;;;;;;;;18.80;99.90;;;;;;5012286;28;19932;-66
2022/10/31 04:29:43;;;;;;;;;;;18.80;99.90;;;;;;5036339;28;19925;-66
2022/10/31 04:32:15;;;;;;;;;;;18.80;99.90;;;;;;5011073;28;19925;-66
2022/10/31 04:34:42;;;;;;;;;;;18.80;99.90;;;;;;5030653;28;19932;-67
2022/10/31 04:37:10;;;;;;;;;;;18.80;99.90;;;;;;5011705;28;20388;-67
2022/10/31 04:39:37;;;;;;;;;;;18.80;99.90;;;;;;5010066;28;20335;-65
2022/10/31 04:42:36;;;;;;;;;;;18.80;99.90;;;;;;5022766;28;19925;-66
2022/10/31 04:45:06;;;;;;;;;;;18.80;99.90;;;;;;5014208;28;20248;-67
2022/10/31 04:47:35;;;;;;;;;;;18.80;99.90;;;;;;5012033;28;19925;-65
2022/10/31 04:50:02;;;;;;;;;;;18.80;99.90;;;;;;5022644;28;19925;-66
2022/10/31 04:52:30;;;;;;;;;;;18.80;99.90;;;;;;5013008;28;19928;-66
2022/10/31 04:54:57;;;;;;;;;;;18.80;99.90;;;;;;5029452;28;19932;-66
2022/10/31 04:57:53;;;;;;;;;;;18.80;99.90;;;;;;5013361;28;19925;-66
2022/10/31 05:00:22;;;;;;;;;;;18.80;99.90;;;;;;5013096;28;19925;-66
2022/10/31 05:02:51;;;;;;;;;;;18.80;99.90;;;;;;5027674;28;19921;-66
2022/10/31 05:05:20;;;;;;;;;;;18.80;99.90;;;;;;5010787;28;19925;-67
2022/10/31 05:07:48;;;;;;;;;;;18.80;99.90;;;;;;5030066;28;19921;-67
2022/10/31 05:10:19;;;;;;;;;;;18.80;99.90;;;;;;5013688;28;19925;-65
2022/10/31 05:12:50;;;;;;;;;;;18.80;99.90;;;;;;5013711;28;19929;-65
2022/10/31 05:15:36;;;;;;;;;;;18.80;99.90;;;;;;5033078;28;20292;-65
2022/10/31 05:18:41;;;;;;;;;;;18.80;99.90;;;;;;4925516;29;19922;-65
2022/10/31 05:21:27;;;;;;;;;;;18.80;99.90;;;;;;4938893;28;19927;-66
2022/10/31 05:23:58;;;;;;;;;;;18.80;99.90;;;;;;4983536;28;19925;-66
2022/10/31 05:26:27;;;;;;;;;;;18.80;99.90;;;;;;5012756;28;19940;-65
2022/10/31 05:28:55;;;;;;;;;;;18.80;99.90;;;;;;5013770;28;19929;-65
2022/10/31 05:31:22;;;;;;;;;;;18.90;99.90;;;;;;5013446;28;19921;-65
2022/10/31 05:33:51;;;;;;;;;;;18.80;99.90;;;;;;5014127;28;20486;-66
2022/10/31 05:36:36;;;;;;;;;;;18.80;99.90;;;;;;5036626;28;19935;-66
2022/10/31 05:39:11;;;;;;;;;;;18.80;99.90;;;;;;5012828;28;19936;-67
2022/10/31 05:41:42;;;;;;;;;;;18.80;99.90;;;;;;5009250;28;19925;-66
2022/10/31 05:44:19;;;;;;;;;;;18.80;99.90;;;;;;5014471;28;20384;-66
2022/10/31 05:46:57;;;;;;;;;;;18.80;99.90;;;;;;4998973;28;19925;-67
2022/10/31 05:49:53;;;;;;;;;;;18.80;99.90;;;;;;5023607;28;19921;-66
2022/10/31 05:52:38;;;;;;;;;;;18.90;99.90;;;;;;5035858;28;19951;-67
2022/10/31 05:55:16;;;;;;;;;;;18.80;99.90;;;;;;5016185;28;19925;-64
2022/10/31 05:57:57;;;;;;;;;;;18.80;99.90;;;;;;5015667;28;19925;-67
2022/10/31 06:00:27;;;;;;;;;;;18.80;99.90;;;;;;5011424;28;20019;-67
2022/10/31 06:03:03;;;;;;;;;;;18.80;99.90;;;;;;5007603;28;19948;-66
2022/10/31 06:05:43;;;;;;;;;;;18.80;99.90;;;;;;5007706;28;19925;-66
2022/10/31 06:08:17;;;;;;;;;;;18.80;99.90;;;;;;5002587;28;20296;-67
2022/10/31 06:10:44;;;;;;;;;;;18.80;99.90;;;;;;5012178;28;19928;-67
2022/10/31 06:13:14;;;;;;;;;;;18.90;99.90;;;;;;5010681;28;19925;-67
2022/10/31 06:15:47;;;;;;;;;;;18.90;99.90;;;;;;5030820;28;19925;-67
2022/10/31 06:18:18;;;;;;;;;;;19.00;99.90;;;;;;5010224;28;19932;-67
2022/10/31 06:20:48;;;;;;;;;;;19.00;99.90;;;;;;5011724;28;19921;-67
2022/10/31 06:23:15;;;;;;;;;;;19.00;99.90;;;;;;5034960;23;19933;-65
2022/10/31 06:25:48;;;;;;;;;;;19.00;99.90;;;;;;5001963;28;20017;-64
2022/10/31 06:28:15;;;;;;;;;;;19.00;99.90;;;;;;4988576;28;20321;-63
2022/10/31 06:30:55;;;;;;;;;;;19.00;99.90;;;;;;5005893;28;19929;-65
2022/10/31 06:33:23;;;;;;;;;;;19.00;99.90;;;;;;5013499;28;19921;-64
2022/10/31 06:35:56;;;;;;;;;;;19.00;99.90;;;;;;4971429;28;19922;-64
2022/10/31 06:38:24;;;;;;;;;;;19.10;99.90;;;;;;4984069;28;19945;-65
2022/10/31 06:40:51;;;;;;;;;;;19.10;99.90;;;;;;4988452;28;19931;-64
2022/10/31 06:43:21;;;;;;;;;;;19.00;99.90;;;;;;4968666;28;19926;-63
2022/10/31 06:45:50;;;;;;;;;;;19.00;99.90;;;;;;4987595;28;20318;-66
2022/10/31 06:48:33;;;;;;;;;;;19.00;99.90;;;;;;4979758;28;19925;-65
2022/10/31 06:51:18;;;;;;;;;;;19.00;99.90;;;;;;4989270;28;19926;-63
2022/10/31 06:53:47;;;;;;;;;;;19.00;99.90;;;;;;4990800;28;19930;-65
2022/10/31 06:56:16;;;;;;;;;;;19.00;99.90;;;;;;4973188;28;20437;-63
2022/10/31 06:58:55;;;;;;;;;;;19.00;99.90;;;;;;4987336;28;20393;-63
2022/10/31 07:01:42;;;;;;;;;;;19.00;99.90;;;;;;4982578;28;19925;-64
2022/10/31 07:04:10;;;;;;;;;;;19.00;99.90;;;;;;4986893;28;19925;-65
2022/10/31 07:06:38;;;;;;;;;;;19.00;99.90;;;;;;4986996;28;19925;-63
2022/10/31 07:09:05;;;;;;;;;;;19.00;99.90;;;;;;4988887;28;20274;-62
2022/10/31 07:11:32;;;;;;;;;;;19.00;99.90;;;;;;4987446;28;20313;-65
2022/10/31 07:14:00;;;;;;;;;;;19.00;99.90;;;;;;4980256;28;20310;-63
2022/10/31 07:16:27;;;;;;;;;;;19.00;99.90;;;;;;4997480;28;19929;-64
2022/10/31 07:18:55;;;;;;;;;;;19.00;99.90;;;;;;4998977;28;19944;-65
2022/10/31 07:21:22;;;;;;;;;;;19.00;99.90;;;;;;5001088;28;19926;-65
2022/10/31 07:23:49;;;;;;;;;;;19.00;99.90;;;;;;5000229;28;19929;-65
2022/10/31 07:26:54;;;;;;;;;;;18.90;99.90;;;;;;4939848;28;19933;-64
2022/10/31 07:29:22;;;;;;;;;;;19.00;99.90;;;;;;4929127;29;19933;-64
2022/10/31 07:31:49;;;;;;;;;;;19.00;99.90;;;;;;4947462;28;19921;-66
2022/10/31 07:34:23;;;;;;;;;;;18.90;99.90;;;;;;4985083;28;21552;-66
2022/10/31 07:37:08;;;;;;;;;;;18.90;99.90;;;;;;4995156;28;20305;-66
2022/10/31 07:39:36;;;;;;;;;;;18.90;99.90;;;;;;4986340;28;19941;-63
2022/10/31 07:42:03;;;;;;;;;;;18.90;99.90;;;;;;4987383;28;20293;-62
2022/10/31 07:44:31;;;;;;;;;;;19.00;99.90;;;;;;4985707;28;19925;-63
2022/10/31 07:47:17;;;;;;;;;;;18.90;99.90;;;;;;4994623;28;19949;-61
2022/10/31 07:50:02;;;;;;;;;;;18.90;99.90;;;;;;4988193;28;19929;-61
2022/10/31 07:53:08;;;;;;;;;;;18.90;99.90;;;;;;4984472;28;20028;-65
2022/10/31 07:55:38;;;;;;;;;;;18.90;99.90;;;;;;4988030;28;19925;-63
2022/10/31 07:58:11;;;;;;;;;;;18.90;99.90;;;;;;4987707;28;19926;-62
2022/10/31 08:00:40;;;;;;;;;;;18.90;99.90;;;;;;4999131;28;19925;-65
2022/10/31 08:03:09;;;;;;;;;;;18.90;99.90;;;;;;4992083;28;19925;-65
2022/10/31 08:06:02;;;;;;;;;;;18.90;99.90;;;;;;4983690;28;19922;-64
2022/10/31 08:08:58;;;;;;;;;;;18.90;99.90;;;;;;4989336;28;19938;-62
2022/10/31 08:11:26;;;;;;;;;;;18.90;99.90;;;;;;4991689;28;19922;-65
2022/10/31 08:13:53;;;;;;;;;;;18.90;99.90;;;;;;4989934;28;19933;-63
2022/10/31 08:16:20;;;;;;;;;;;18.90;99.90;;;;;;4991435;28;19941;-63
2022/10/31 08:18:55;;;;;;;;;;;18.90;99.90;;;;;;4998890;28;19929;-64
2022/10/31 08:21:23;;;;;;;;;;;18.90;99.90;;;;;;4994528;28;19970;-65
2022/10/31 08:23:50;;;;;;;;;;;18.90;99.90;;;;;;4995957;28;19929;-62
2022/10/31 08:26:20;;;;;;;;;;;18.90;99.90;;;;;;4980735;28;19945;-60
2022/10/31 08:28:49;;;;;;;;;;;18.90;99.90;;;;;;4986166;28;19925;-62
2022/10/31 08:31:19;;;;;;;;;;;18.90;99.90;;;;;;4989909;28;19921;-63
2022/10/31 08:33:46;;;;;;;;;;;18.90;99.90;;;;;;4999420;28;19922;-64
2022/10/31 08:36:19;;;;;;;;;;;18.90;99.90;;;;;;5005013;28;19940;-62
2022/10/31 08:38:58;;;;;;;;;;;18.90;99.90;;;;;;5006163;28;19937;-65
2022/10/31 08:41:29;;;;;;;;;;;18.90;99.90;;;;;;4980100;28;19957;-65
2022/10/31 08:43:58;;;;;;;;;;;18.90;99.90;;;;;;4985625;28;19937;-62
2022/10/31 08:46:25;;;;;;;;;;;18.90;99.90;;;;;;5002353;28;19922;-64
2022/10/31 08:48:52;;;;;;;;;;;18.90;99.90;;;;;;4984851;28;19922;-64
2022/10/31 08:51:20;;;;;;;;;;;18.90;99.90;;;;;;4971366;28;19929;-62
2022/10/31 08:53:51;;;;;;;;;;;18.90;99.90;;;;;;4983913;28;19952;-63
2022/10/31 08:56:31;;;;;;;;;;;18.90;99.90;;;;;;4987019;28;19925;-64
2022/10/31 08:58:59;;;;;;;;;;;18.90;99.90;;;;;;4992063;28;19922;-64
2022/10/31 09:01:39;;;;;;;;;;;18.90;99.90;;;;;;4984493;28;19925;-65
2022/10/31 09:04:07;;;;;;;;;;;18.90;99.90;;;;;;4972668;28;19926;-63
2022/10/31 09:06:35;;;;;;;;;;;18.90;99.90;;;;;;4968621;28;19921;-63
2022/10/31 09:09:04;;;;;;;;;;;18.90;99.90;;;;;;4960497;28;20139;-64
2022/10/31 09:11:31;;;;;;;;;;;18.90;99.90;;;;;;5000205;28;19921;-64
2022/10/31 09:14:10;;;;;;;;;;;18.90;99.90;;;;;;5000812;28;20389;-64
2022/10/31 09:16:37;;;;;;;;;;;18.90;99.90;;;;;;4987263;28;19933;-64
2022/10/31 09:19:08;;;;;;;;;;;18.90;99.90;;;;;;4976138;28;19930;-64
2022/10/31 09:21:37;;;;;;;;;;;18.90;99.90;;;;;;4979065;28;19921;-65
2022/10/31 09:24:05;;;;;;;;;;;18.90;99.90;;;;;;4994362;28;19922;-65
2022/10/31 09:26:33;;;;;;;;;;;18.90;99.90;;;;;;5023152;28;19926;-65
2022/10/31 09:29:09;;;;;;;;;;;18.90;99.90;;;;;;4989670;28;19932;-66
2022/10/31 09:31:37;;;;;;;;;;;18.90;99.90;;;;;;4984103;28;19933;-65
2022/10/31 09:34:39;;;;;;;;;;;18.90;99.90;;;;;;4987678;28;19925;-66
2022/10/31 09:37:11;;;;;;;;;;;18.90;99.90;;;;;;4990528;28;19921;-63
2022/10/31 09:39:39;;;;;;;;;;;18.90;99.90;;;;;;4991048;28;19932;-64
2022/10/31 09:42:24;;;;;;;;;;;18.90;99.90;;;;;;5011757;28;19925;-64
2022/10/31 09:45:08;;;;;;;;;;;18.90;99.90;;;;;;4989024;28;19948;-64
2022/10/31 09:47:49;;;;;;;;;;;18.90;99.90;;;;;;4979699;28;19946;-64
2022/10/31 09:50:47;;;;;;;;;;;18.80;99.90;;;;;;4989981;28;20313;-63
2022/10/31 09:53:36;;;;;;;;;;;18.80;99.90;;;;;;5011836;28;19922;-62
2022/10/31 09:56:11;;;;;;;;;;;18.90;99.90;;;;;;4995360;28;19925;-63
2022/10/31 09:59:00;;;;;;;;;;;18.90;99.90;;;;;;4985327;28;19929;-64
2022/10/31 10:01:30;;;;;;;;;;;18.90;99.90;;;;;;5001252;28;19929;-64
2022/10/31 10:04:01;;;;;;;;;;;18.90;99.90;;;;;;4989179;28;19926;-65
2022/10/31 10:06:50;;;;;;;;;;;18.90;99.90;;;;;;4990368;28;19930;-63
2022/10/31 10:09:44;;;;;;;;;;;18.90;99.90;;;;;;4967298;28;19925;-63
2022/10/31 10:12:50;;;;;;;;;;;18.90;99.90;;;;;;4984347;28;20436;-61
2022/10/31 10:15:32;;;;;;;;;;;18.80;99.90;;;;;;4978276;28;19929;-64
2022/10/31 10:18:05;;;;;;;;;;;18.90;99.90;;;;;;4998898;28;19930;-62
2022/10/31 10:20:32;;;;;;;;;;;18.90;99.90;;;;;;4982161;28;19933;-63
2022/10/31 10:23:05;;;;;;;;;;;18.90;99.90;;;;;;4980461;28;20305;-63
2022/10/31 10:25:34;;;;;;;;;;;18.90;99.90;;;;;;4996114;28;20301;-65
2022/10/31 10:28:21;;;;;;;;;;;18.90;99.90;;;;;;4989527;28;20287;-65
2022/10/31 10:30:53;;;;;;;;;;;18.90;99.90;;;;;;4992432;28;20009;-62
2022/10/31 10:33:22;;;;;;;;;;;18.90;99.90;;;;;;4947840;28;19922;-64
2022/10/31 10:35:52;;;;;;;;;;;18.90;99.90;;;;;;5000081;28;19936;-64
2022/10/31 10:38:22;;;;;;;;;;;18.90;99.90;;;;;;4992320;28;20417;-63
2022/10/31 10:40:49;;;;;;;;;;;18.90;99.90;;;;;;4983101;28;19940;-66
2022/10/31 10:43:20;;;;;;;;;;;18.80;99.90;;;;;;4992216;28;20868;-64
2022/10/31 10:48:43;;;;;;;;;;;18.90;99.90;;;;;;4984364;28;19926;-64
2022/10/31 10:51:15;;;;;;;;;;;18.90;99.90;;;;;;5002639;28;19932;-63
2022/10/31 10:54:21;;;;;;;;;;;18.90;99.90;;;;;;5001403;28;19925;-67
2022/10/31 10:57:07;;;;;;;;;;;18.90;99.90;;;;;;4998802;28;19929;-60
2022/10/31 10:59:34;;;;;;;;;;;18.90;99.90;;;;;;4993385;28;19925;-63
2022/10/31 11:02:03;;;;;;;;;;;18.90;99.90;;;;;;5001568;28;19933;-65
2022/10/31 11:04:34;;;;;;;;;;;18.90;99.90;;;;;;4967214;28;19937;-64
2022/10/31 11:07:06;;;;;;;;;;;18.90;99.90;;;;;;4973211;28;19928;-63
2022/10/31 11:09:34;;;;;;;;;;;18.90;99.90;;;;;;4995923;28;19925;-60
2022/10/31 11:12:30;;;;;;;;;;;18.90;99.90;;;;;;4996411;28;19926;-64
2022/10/31 11:15:00;;;;;;;;;;;18.90;99.90;;;;;;4964493;28;19925;-63
2022/10/31 11:17:31;;;;;;;;;;;18.90;99.90;;;;;;4969502;28;19926;-65
2022/10/31 11:20:08;;;;;;;;;;;18.90;99.90;;;;;;4997330;28;19925;-64
2022/10/31 11:22:38;;;;;;;;;;;18.90;99.90;;;;;;4963250;28;1048935;-65
2022/10/31 11:25:21;;;;;;;;;;;18.90;99.90;;;;;;4976930;28;19922;-61
2022/10/31 11:28:02;;;;;;;;;;;18.90;99.90;;;;;;4996037;28;19929;-64
2022/10/31 11:30:30;;;;;;;;;;;18.90;99.90;;;;;;4989838;28;19926;-63
2022/10/31 11:32:57;;;;;;;;;;;18.90;99.90;;;;;;4998421;28;19936;-63
2022/10/31 11:35:25;;;;;;;;;;;18.90;99.90;;;;;;5015090;28;19927;-64
2022/10/31 11:37:54;;;;;;;;;;;18.90;99.90;;;;;;5007267;28;19937;-65
2022/10/31 11:40:23;;;;;;;;;;;18.90;99.90;;;;;;5020292;28;19925;-65
2022/10/31 11:42:52;;;;;;;;;;;18.90;99.90;;;;;;5001946;28;19928;-64
2022/10/31 11:45:22;;;;;;;;;;;18.90;99.90;;;;;;5003999;28;19947;-67
2022/10/31 11:47:50;;;;;;;;;;;18.90;99.90;;;;;;5007870;28;19959;-65
2022/10/31 11:50:26;;;;;;;;;;;18.90;99.90;;;;;;4985515;28;19925;-61
2022/10/31 11:52:54;;;;;;;;;;;18.90;99.90;;;;;;4990155;28;20022;-65
2022/10/31 11:55:31;;;;;;;;;;;18.90;99.90;;;;;;4992065;28;19926;-64
2022/10/31 11:57:58;;;;;;;;;;;18.90;99.90;;;;;;5001444;28;20032;-65
2022/10/31 12:00:25;;;;;;;;;;;18.90;99.90;;;;;;4976718;28;19922;-62
2022/10/31 12:03:24;;;;;;;;;;;18.90;99.90;;;;;;5000478;28;19926;-64
2022/10/31 12:06:00;;;;;;;;;;;18.90;99.90;;;;;;4980506;28;19925;-65
2022/10/31 12:08:30;;;;;;;;;;;18.90;99.90;;;;;;4998625;28;19929;-65
2022/10/31 12:11:02;;;;;;;;;;;18.90;99.90;;;;;;4988832;28;19925;-65
2022/10/31 12:13:48;;;;;;;;;;;19.00;99.90;;;;;;4998578;28;19979;-62
2022/10/31 12:16:28;;;;;;;;;;;19.00;99.90;;;;;;4982222;28;19936;-62
2022/10/31 12:19:01;;;;;;;;;;;18.90;99.90;;;;;;4988189;28;20302;-62
2022/10/31 12:21:40;;;;;;;;;;;18.90;99.90;;;;;;4984669;28;19936;-64
2022/10/31 12:24:14;;;;;;;;;;;18.90;99.90;;;;;;5014192;22;19922;-66
2022/10/31 12:26:46;;;;;;;;;;;19.00;99.90;;;;;;5022666;28;19925;-64
2022/10/31 12:29:36;;;;;;;;;;;19.00;99.90;;;;;;5021715;28;19925;-65
2022/10/31 12:32:22;;;;;;;;;;;19.00;99.90;;;;;;4990254;28;19929;-66
2022/10/31 12:34:59;;;;;;;;;;;19.00;99.90;;;;;;5002135;28;19929;-65
2022/10/31 12:37:48;;;;;;;;;;;19.00;99.90;;;;;;5008918;28;19937;-63
2022/10/31 12:40:30;;;;;;;;;;;18.90;99.90;;;;;;5004018;28;19925;-66
2022/10/31 12:42:57;;;;;;;;;;;19.00;99.90;;;;;;5001998;28;19921;-65
2022/10/31 12:45:34;;;;;;;;;;;19.00;99.90;;;;;;5004678;28;19921;-64
2022/10/31 12:48:04;;;;;;;;;;;19.00;99.90;;;;;;5011188;28;19921;-64
2022/10/31 12:50:39;;;;;;;;;;;19.00;99.90;;;;;;4997431;28;19921;-65
2022/10/31 12:53:15;;;;;;;;;;;19.00;99.90;;;;;;5011178;28;19921;-66
2022/10/31 12:55:42;;;;;;;;;;;19.00;99.90;;;;;;5009835;28;19936;-65
2022/10/31 12:58:25;;;;;;;;;;;19.00;99.90;;;;;;5011663;28;19922;-65
2022/10/31 13:01:12;;;;;;;;;;;19.00;99.90;;;;;;5005729;28;19922;-65
2022/10/31 13:03:51;;;;;;;;;;;19.00;99.90;;;;;;5003833;28;19968;-66
2022/10/31 13:06:29;;;;;;;;;;;19.00;99.90;;;;;;4987568;28;19933;-64
2022/10/31 13:08:59;;;;;;;;;;;19.00;99.90;;;;;;5007670;28;19925;-65
2022/10/31 13:11:34;;;;;;;;;;;19.00;99.90;;;;;;5015140;28;20656;-65
2022/10/31 13:14:04;;;;;;;;;;;18.90;99.90;;;;;;5010219;28;19933;-65
2022/10/31 13:16:37;;;;;;;;;;;18.90;99.90;;;;;;5004630;28;20008;-63
2022/10/31 13:19:15;;;;;;;;;;;18.90;99.90;;;;;;5010533;28;20393;-65
2022/10/31 13:21:57;;;;;;;;;;;18.90;99.90;;;;;;5003887;28;20362;-64
2022/10/31 13:24:30;;;;;;;;;;;18.90;99.90;;;;;;5009064;28;19933;-64
2022/10/31 13:26:59;;;;;;;;;;;18.90;99.90;;;;;;5010197;28;19921;-65
2022/10/31 13:29:33;;;;;;;;;;;18.90;99.90;;;;;;5010016;28;19933;-65
2022/10/31 13:32:04;;;;;;;;;;;19.00;99.90;;;;;;4998741;28;20393;-65
2022/10/31 13:34:31;;;;;;;;;;;19.00;99.90;;;;;;5008390;28;20169;-65
2022/10/31 13:37:01;;;;;;;;;;;18.90;99.90;;;;;;5006592;28;20374;-63
2022/10/31 13:39:49;;;;;;;;;;;18.90;99.90;;;;;;4998747;28;19949;-65
2022/10/31 13:42:22;;;;;;;;;;;18.90;99.90;;;;;;4990963;28;20305;-65
2022/10/31 13:44:49;;;;;;;;;;;18.90;99.90;;;;;;5000894;28;19922;-65
2022/10/31 13:47:27;;;;;;;;;;;18.90;99.90;;;;;;5011499;28;19922;-65
2022/10/31 13:50:04;;;;;;;;;;;18.90;99.90;;;;;;5009162;28;19929;-65
2022/10/31 13:52:31;;;;;;;;;;;18.90;99.90;;;;;;5007681;28;20305;-64
2022/10/31 13:54:58;;;;;;;;;;;18.90;99.90;;;;;;5009642;28;19936;-65
2022/10/31 13:57:25;;;;;;;;;;;18.90;99.90;;;;;;5006965;28;20302;-64
2022/10/31 14:00:21;;;;;;;;;;;18.90;99.90;;;;;;5006955;28;19936;-66
2022/10/31 14:02:50;;;;;;;;;;;18.90;99.90;;;;;;5011217;28;19975;-66
2022/10/31 14:05:46;;;;;;;;;;;18.90;99.90;;;;;;5010241;28;20321;-65
2022/10/31 14:08:18;;;;;;;;;;;18.90;99.90;;;;;;4996207;28;20416;-65
2022/10/31 14:10:47;;;;;;;;;;;18.90;99.90;;;;;;5011866;28;19940;-65
2022/10/31 14:13:32;;;;;;;;;;;18.90;99.90;;;;;;5011221;28;20289;-65
2022/10/31 14:16:01;;;;;;;;;;;18.90;99.90;;;;;;5007086;28;19930;-67
2022/10/31 14:18:37;;;;;;;;;;;18.90;99.90;;;;;;5008137;28;20464;-66
2022/10/31 14:21:22;;;;;;;;;;;18.90;99.90;;;;;;5007631;28;19929;-67
2022/10/31 14:23:50;;;;;;;;;;;19.00;99.90;;;;;;5004763;28;19921;-67
2022/10/31 14:26:21;;;;;;;;;;;19.00;99.90;;;;;;5008647;28;19925;-66
2022/10/31 14:28:49;;;;;;;;;;;18.90;99.90;;;;;;4990185;28;21424;-67
2022/10/31 14:31:36;;;;;;;;;;;19.00;99.90;;;;;;5008328;28;19922;-66
2022/10/31 14:34:15;;;;;;;;;;;19.00;99.90;;;;;;5002995;28;20421;-65
2022/10/31 14:36:58;;;;;;;;;;;19.10;99.90;;;;;;5003903;28;19925;-66
2022/10/31 14:39:35;;;;;;;;;;;19.10;99.90;;;;;;5005985;28;19921;-66
2022/10/31 14:42:05;;;;;;;;;;;19.10;99.90;;;;;;5007857;28;19925;-66
2022/10/31 14:44:35;;;;;;;;;;;19.00;99.90;;;;;;4987337;28;19929;-67
2022/10/31 14:47:12;;;;;;;;;;;19.10;99.90;;;;;;5009439;28;20389;-66
2022/10/31 14:49:48;;;;;;;;;;;19.10;99.90;;;;;;5003010;28;20304;-66
2022/10/31 14:52:16;;;;;;;;;;;19.10;99.90;;;;;;5007148;28;20381;-66
2022/10/31 14:54:46;;;;;;;;;;;19.10;99.90;;;;;;5002909;28;19925;-66